Latest Weather Observations for Wellcamp Airport

IDQ60801

Issued at 11:23 pm EST Saturday 13 July 2024 (issued every 10 minutes, with the page automatically refreshed every 10 minutes)

About weather observations | Map of weather stations | Latest weather observations for QLD | Other Formats
Station Details ID: 541150 Name: WELLCAMP AIRPORT Lat: -27.55 Lon: 151.78 Height: 436.98 m
Data from the previous 72 hours. | See also: Recent months for locations in Queensland
Date/Time
EST
Temp
°C
App
Temp
°C
Dew
Point
°C
Rel
Hum
%
Delta-T
°C
Wind Press
QNH
hPa
Press
MSL
hPa
Rain since
9am
mm
Dir  Spd
km/h
Gust
km/h
Spd
kts
Gust
kts
13/11:20pm 9.8 5.9 7.1 83 1.3 WSW 17 26 9 14 1014.2 1014.2 0.0
13/11:00pm 9.7 5.5 7.3 85 1.2 WSW 19 30 10 16 1014.4 1014.4 0.0
13/10:30pm 9.6 5.2 7.2 85 1.2 WSW 20 30 11 16 1014.3 1014.3 0.0
13/10:00pm 9.8 4.5 6.9 82 1.4 WSW 24 37 13 20 1014.3 1014.3 0.0
13/09:30pm 9.7 5.2 7.1 84 1.3 WSW 20 28 11 15 1014.4 1014.4 0.0
13/09:00pm 9.1 4.7 6.5 84 1.2 WSW 19 26 10 14 1014.2 1014.2 0.0
13/08:30pm 8.8 4.3 6.3 84 1.2 WSW 19 24 10 13 1013.9 1013.9 0.0
13/08:00pm 9.1 3.7 6.2 82 1.4 W 24 32 13 17 1013.7 1013.7 0.0
13/07:30pm 8.8 4.2 5.7 81 1.4 WSW 19 28 10 15 1013.6 1013.6 0.0
13/07:00pm 9.0 3.4 5.4 78 1.7 W 24 32 13 17 1013.2 1013.2 0.0
13/06:30pm 9.2 3.9 5.2 76 1.8 W 22 28 12 15 1012.9 1012.8 0.0
13/06:00pm 10.0 3.6 5.2 72 2.2 W 28 35 15 19 1012.6 1012.6 0.0
13/05:30pm 11.1 5.5 5.6 69 2.6 WSW 24 39 13 21 1012.0 1012.0 0.0
13/05:00pm 11.9 5.9 5.1 63 3.2 WSW 26 35 14 19 1011.7 1011.7 0.0
13/04:30pm 13.1 6.6 4.8 57 3.9 WSW 28 39 15 21 1011.4 1011.4 0.0
13/04:00pm 13.1 7.0 4.8 57 3.9 WSW 26 37 14 20 1011.4 1011.4 0.0
13/03:30pm 14.0 7.5 4.6 53 4.5 WSW 28 41 15 22 1011.2 1011.2 0.0
13/03:00pm 14.1 7.1 4.1 51 4.7 SW 30 43 16 23 1010.9 1010.8 0.0
13/02:30pm 15.6 8.3 4.3 47 5.4 WSW 32 44 17 24 1010.8 1010.7 0.0
13/02:00pm 15.9 7.8 5.2 49 5.2 WSW 37 52 20 28 1010.6 1010.5 0.0
13/01:30pm 15.9 8.7 6.1 52 4.9 WSW 33 54 18 29 1010.6 1010.5 0.0
13/01:00pm 14.9 7.8 6.2 56 4.3 WSW 33 44 18 24 1010.9 1010.8 0.0
13/12:30pm 14.6 8.4 6.2 57 4.1 WSW 28 37 15 20 1011.2 1011.2 0.0
13/12:00pm 14.9 9.2 6.5 57 4.2 WSW 26 35 14 19 1011.6 1011.6 0.0
13/11:30am 13.2 6.7 6.3 63 3.4 WSW 30 41 16 22 1012.1 1012.1 0.0
13/11:00am 13.4 8.0 6.5 63 3.4 W 24 37 13 20 1012.5 1012.5 0.0
13/10:30am 12.1 6.8 7.0 71 2.5 WSW 24 33 13 18 1013.1 1013.1 0.0
13/10:00am 12.3 6.2 6.8 69 2.7 W 28 33 15 18 1013.4 1013.4 0.0
13/09:30am 11.6 6.3 6.9 73 2.3 W 24 33 13 18 1013.6 1013.6 0.0
13/09:12am 10.8 6.5 7.1 78 1.8 W 19 28 10 15 1013.7 1013.7 0.0
13/09:00am 10.1 5.7 7.3 83 1.4 W 20 26 11 14 1013.7 1013.7 0.0
13/08:30am 8.9 4.8 7.7 92 0.6 WNW 19 24 10 13 1013.6 1013.6 0.0
13/08:00am 8.4 4.6 7.6 95 0.4 NW 17 22 9 12 1013.6 1013.6 0.0
13/07:30am 7.9 4.0 7.1 95 0.4 NW 17 22 9 12 1013.0 1013.0 0.0
13/07:00am 7.0 4.8 6.4 96 0.3 N 7 11 4 6 1012.6 1012.6 0.0
13/06:30am 5.4 2.5 4.8 96 0.3 N 9 13 5 7 1012.4 1012.4 0.0
13/06:26am 5.2 1.9 4.6 96 0.3 NNW 11 13 6 7 1012.4 1012.4 0.0
13/06:00am 4.8 1.0 3.9 94 0.4 NNW 13 17 7 9 1011.9 1011.9 0.0
13/05:30am 6.3 2.8 5.3 93 0.5 NNW 13 17 7 9 1011.6 1011.6 0.0
13/05:00am 6.5 3.0 5.6 94 0.4 NW 13 17 7 9 1011.3 1011.3 0.0
13/04:30am 5.6 1.2 4.9 95 0.3 NNW 17 17 9 9 1011.0 1011.0 0.0
13/04:00am 5.3 0.5 4.4 94 0.4 NNW 19 22 10 12 1010.9 1010.8 0.0
13/03:30am 4.9 1.9 3.9 93 0.4 NNW 9 13 5 7 1010.8 1010.7 0.0
13/03:00am 4.7 -0.3 3.5 92 0.5 NNW 19 19 10 10 1011.1 1011.1 0.0
13/02:30am 5.1 0.9 3.8 91 0.6 NNW 15 19 8 10 1010.9 1010.8 0.0
13/02:00am 5.8 2.4 4.1 89 0.7 NNW 11 15 6 8 1010.8 1010.7 0.0
13/01:30am 7.0 5.1 4.7 85 1.0 N 4 6 2 3 1011.1 1011.1 0.0
13/01:00am 7.9 6.4 5.2 83 1.2 WNW 2 6 1 3 1011.2 1011.2 0.0
13/12:30am 9.9 7.9 6.3 78 1.7 S 6 7 3 4 1011.1 1011.1 0.0
13/12:00am 11.1 9.1 6.3 72 2.3 SW 6 11 3 6 1011.4 1011.4 0.0
 
Date/Time
EST
Temp
°C
App
Temp
°C
Dew
Point
°C
Rel
Hum
%
Delta-T
°C
Wind Press
QNH
hPa
Press
MSL
hPa
Rain since
9am
mm
Dir  Spd
km/h
Gust
km/h
Spd
kts
Gust
kts
12/11:30pm 11.4 8.4 6.1 70 2.5 SW 11 17 6 9 1011.9 1011.9 0.0
12/11:00pm 11.9 8.6 6.2 68 2.8 SW 13 19 7 10 1011.9 1011.9 0.0
12/10:30pm 11.8 8.1 6.5 70 2.6 SW 15 20 8 11 1012.0 1012.0 0.0
12/10:00pm 11.2 9.2 6.3 72 2.4 S 6 11 3 6 1011.9 1011.9 0.0
12/09:30pm 10.5 8.5 6.1 74 2.1 SSE 6 7 3 4 1011.8 1011.8 0.0
12/09:00pm 10.6 8.9 5.8 72 2.3 SSW 4 9 2 5 1011.6 1011.6 0.0
12/08:30pm 10.9 9.1 5.4 69 2.6 SSE 4 7 2 4 1011.4 1011.4 0.0
12/08:00pm 11.7 8.2 5.6 66 2.9 SW 13 17 7 9 1011.3 1011.3 0.0
12/07:30pm 12.3 8.1 5.5 63 3.2 SW 17 20 9 11 1011.4 1011.4 0.0
12/07:00pm 13.7 9.5 5.8 59 3.8 SW 17 22 9 12 1011.2 1011.2 0.0
12/06:30pm 14.5 10.0 6.1 57 4.1 WSW 19 26 10 14 1011.3 1011.3 0.0
12/06:00pm 14.9 10.8 6.0 55 4.4 WSW 17 24 9 13 1011.2 1011.2 0.0
12/05:30pm 15.7 11.5 5.6 51 4.9 WSW 17 22 9 12 1011.1 1011.1 0.0
12/05:00pm 17.2 12.9 5.2 45 5.9 W 17 20 9 11 1010.8 1010.7 0.0
12/04:30pm 19.1 14.7 4.8 39 7.1 W 17 24 9 13 1010.6 1010.5 0.0
12/04:00pm 19.7 14.7 3.4 34 7.9 W 19 26 10 14 1010.6 1010.5 0.0
12/03:30pm 20.0 13.7 1.4 29 8.6 WSW 24 33 13 18 1010.6 1010.5 0.0
12/03:00pm 20.1 14.0 2.9 32 8.3 W 24 32 13 17 1010.6 1010.5 0.0
12/02:30pm 20.4 14.5 4.0 34 8.0 W 24 32 13 17 1010.6 1010.5 0.0
12/02:00pm 20.4 16.3 7.7 44 6.7 W 19 32 10 17 1010.7 1010.6 0.0
12/01:30pm 20.0 14.6 6.4 41 7.0 W 24 32 13 17 1011.1 1011.1 0.0
12/01:00pm 19.4 14.0 6.5 43 6.6 WNW 24 33 13 18 1011.6 1011.6 0.0
12/12:30pm 20.1 15.0 7.5 44 6.6 WNW 24 35 13 19 1012.0 1012.0 0.0
12/12:00pm 19.4 13.6 6.2 42 6.7 WNW 26 35 14 19 1012.4 1012.4 0.0
12/11:30am 18.8 13.8 8.2 50 5.6 NW 24 33 13 18 1013.2 1013.2 0.0
12/11:00am 18.9 14.3 9.7 55 5.0 NW 24 32 13 17 1013.7 1013.7 0.0
12/10:30am 17.9 14.0 10.8 63 3.9 NW 22 30 12 16 1014.1 1014.1 0.0
12/10:00am 17.2 13.4 11.2 68 3.3 NW 22 28 12 15 1014.5 1014.5 0.0
12/09:30am 16.2 14.7 10.5 69 3.1 NNW 9 11 5 6 1014.8 1014.8 0.0
12/09:00am 13.2 13.0 10.4 83 1.5 WNW 2 4 1 2 1014.7 1014.7 0.0
12/08:30am 11.1 10.6 9.5 90 0.8 WNW 2 6 1 3 1014.8 1014.8 0.0
12/08:00am 9.0 8.2 8.2 95 0.4 SSW 2 4 1 2 1014.5 1014.5 0.0
12/07:30am 7.3 5.8 6.7 96 0.3 WSW 4 6 2 3 1014.7 1014.7 0.0
12/07:00am 6.1 - 5.7 97 0.2 - - - - - 1014.4 1014.4 0.0
12/06:30am 6.6 4.5 6.0 96 0.3 SE 6 9 3 5 1014.4 1014.4 0.0
12/06:00am 7.4 5.9 7.0 97 0.2 ESE 4 7 2 4 1014.3 1014.3 0.0
12/05:30am 7.4 5.9 6.8 96 0.3 WNW 4 6 2 3 1014.1 1014.1 0.0
12/05:00am 7.7 5.9 7.3 97 0.2 SSW 6 7 3 4 1014.2 1014.2 0.0
12/04:30am 7.4 5.5 6.8 96 0.3 S 6 9 3 5 1014.1 1014.1 0.0
12/04:00am 7.6 5.8 7.0 96 0.3 SSW 6 7 3 4 1014.0 1014.0 0.0
12/03:30am 8.0 6.3 7.4 96 0.3 SSE 6 7 3 4 1014.4 1014.4 0.0
12/03:00am 8.0 6.3 7.6 97 0.2 S 6 7 3 4 1014.8 1014.8 0.0
12/02:30am 7.5 6.0 6.8 95 0.3 SSW 4 6 2 3 1015.2 1015.2 0.0
12/02:00am 7.3 5.7 6.4 94 0.4 SW 4 6 2 3 1015.6 1015.6 0.0
12/01:30am 8.2 6.5 7.4 95 0.4 WSW 6 7 3 4 1015.7 1015.7 0.0
12/01:00am 6.9 5.3 6.2 95 0.3 N 4 6 2 3 1015.6 1015.6 0.0
12/12:30am 7.3 5.3 6.4 94 0.4 NNW 6 7 3 4 1016.0 1016.0 0.0
12/12:00am 9.4 8.6 8.2 92 0.6 NW 2 4 1 2 1016.3 1016.3 0.0
 
Date/Time
EST
Temp
°C
App
Temp
°C
Dew
Point
°C
Rel
Hum
%
Delta-T
°C
Wind Press
QNH
hPa
Press
MSL
hPa
Rain since
9am
mm
Dir  Spd
km/h
Gust
km/h
Spd
kts
Gust
kts
11/11:30pm 9.4 8.2 8.2 92 0.6 WNW 4 6 2 3 1016.8 1016.9 0.0
11/11:00pm 10.1 8.6 8.5 90 0.8 W 6 7 3 4 1017.0 1017.1 0.0
11/10:30pm 11.6 10.7 9.2 85 1.2 NW 4 6 2 3 1017.1 1017.2 0.0
11/10:00pm 11.6 9.7 9.2 85 1.2 N 9 13 5 7 1017.2 1017.3 0.0
11/09:30pm 13.6 12.3 10.0 79 1.9 NW 7 11 4 6 1017.6 1017.6 0.0
11/09:00pm 13.0 11.7 10.0 82 1.6 WNW 7 13 4 7 1017.4 1017.5 0.0
11/08:30pm 14.4 12.0 10.2 76 2.2 WNW 13 20 7 11 1017.1 1017.2 0.0
11/08:00pm 14.1 12.0 9.7 75 2.3 NW 11 15 6 8 1017.1 1017.2 0.0
11/07:30pm 15.3 13.7 10.3 72 2.7 N 9 15 5 8 1016.9 1017.0 0.0
11/07:00pm 16.0 13.4 10.7 71 2.9 NE 15 19 8 10 1016.8 1016.9 0.0
11/06:30pm 16.4 14.3 11.1 71 2.9 NE 13 19 7 10 1016.7 1016.7 0.0
11/06:00pm 17.2 15.7 10.6 65 3.6 NNE 9 15 5 8 1016.8 1016.9 0.0
11/05:30pm 17.6 15.2 10.2 62 4.0 NE 13 17 7 9 1016.4 1016.4 0.0
11/05:00pm 18.2 15.9 10.3 60 4.3 NE 13 19 7 10 1016.2 1016.2 0.0
11/04:30pm 19.5 17.1 10.2 55 5.1 NE 13 19 7 10 1016.1 1016.1 0.0
11/04:00pm 19.9 17.6 10.3 54 5.3 NE 13 17 7 9 1016.2 1016.2 0.0
11/03:30pm 19.1 16.6 9.6 54 5.1 NE 13 19 7 10 1016.3 1016.3 0.0
11/03:00pm 20.2 18.4 9.5 50 5.8 NNE 9 15 5 8 1016.4 1016.4 0.0
11/02:30pm 20.8 19.2 10.3 51 5.8 NNE 9 22 5 12 1016.6 1016.6 0.0
11/02:00pm 19.6 17.3 10.3 55 5.1 NNE 13 20 7 11 1016.8 1016.9 0.0
11/01:30pm 19.9 17.2 8.9 49 5.9 N 13 19 7 10 1017.1 1017.2 0.0
11/01:00pm 20.1 18.4 9.7 51 5.7 NNW 9 15 5 8 1017.3 1017.4 0.0
11/12:30pm 20.0 17.6 9.9 52 5.5 NNW 13 19 7 10 1018.0 1018.0 0.0
11/12:00pm 19.0 17.1 8.9 52 5.4 N 9 17 5 9 1018.7 1018.7 0.0
11/11:30am 19.6 18.2 10.9 57 4.8 NNE 9 15 5 8 1019.3 1019.4 0.0
11/11:00am 18.2 16.0 10.8 62 4.1 NNE 13 17 7 9 1020.0 1020.0 0.0
11/10:30am 17.4 16.7 11.4 68 3.3 NNW 6 9 3 5 1020.5 1020.5 0.0
11/10:00am 16.4 14.9 10.7 69 3.1 NNW 9 15 5 8 1020.9 1021.0 0.0
11/09:30am 14.9 12.9 10.1 73 2.6 NW 11 15 6 8 1021.4 1021.5 0.0
11/09:00am 11.9 10.3 8.0 77 1.9 N 6 9 3 5 1021.4 1021.5 0.0
11/08:30am 9.7 8.7 7.5 86 1.1 NW 2 6 1 3 1021.1 1021.2 0.0
11/08:00am 7.5 6.7 6.4 93 0.5 CALM 0 4 0 2 1020.8 1020.9 0.0
11/07:30am 5.6 3.8 5.2 97 0.2 W 4 6 2 3 1020.8 1020.9 0.0
11/07:00am 3.2 0.5 2.8 97 0.2 NW 6 6 3 3 1020.8 1020.9 0.0
11/06:30am 2.0 -0.9 1.4 96 0.2 WNW 6 7 3 4 1020.5 1020.5 0.0
11/06:00am 2.7 -0.1 2.3 97 0.2 WNW 6 6 3 3 1020.4 1020.4 0.0
11/05:30am 1.1 -1.9 0.7 97 0.2 W 6 6 3 3 1020.1 1020.1 0.0
11/05:00am 2.7 -0.1 2.3 97 0.2 NNE 6 7 3 4 1020.0 1020.0 0.0
11/04:30am 2.5 0.1 1.9 96 0.2 NW 4 6 2 3 1019.8 1019.9 0.0
11/04:00am 2.1 -0.8 1.5 96 0.2 W 6 7 3 4 1020.0 1020.0 0.0
11/03:30am 2.4 -0.4 1.8 96 0.2 W 6 7 3 4 1020.3 1020.3 0.0
11/03:00am 2.9 0.1 2.3 96 0.2 WSW 6 7 3 4 1020.7 1020.7 0.0
11/02:30am 3.6 1.3 2.7 94 0.4 W 4 6 2 3 1020.8 1020.9 0.0
11/02:00am 3.9 1.7 3.3 96 0.3 WNW 4 6 2 3 1021.1 1021.2 0.0
11/01:30am 3.4 0.5 2.8 96 0.2 NW 7 7 4 4 1021.3 1021.4 0.0
11/01:00am 4.3 1.7 3.3 93 0.4 W 6 7 3 4 1021.5 1021.6 0.0
11/12:30am 4.0 1.4 3.1 94 0.4 WSW 6 7 3 4 1021.6 1021.7 0.0
11/12:00am 5.6 3.5 4.1 90 0.7 SW 4 6 2 3 1021.7 1021.8 0.0
 
Date/Time
EST
Temp
°C
App
Temp
°C
Dew
Point
°C
Rel
Hum
%
Delta-T
°C
Wind Press
QNH
hPa
Press
MSL
hPa
Rain since
9am
mm
Dir  Spd
km/h
Gust
km/h
Spd
kts
Gust
kts
10/11:30pm 5.7 3.7 4.5 92 0.5 SW 4 6 2 3 1021.9 1022.0 0.0

Other formats

Comma delimited format used in spreadsheet applications
http://www.bom.gov.au/fwo/IDQ60801/IDQ60801.99435.axf

JavaScript Object Notation format (JSON) in row-major order
http://www.bom.gov.au/fwo/IDQ60801/IDQ60801.99435.json

Data quality

Most of these data are generated automatically and are frequently updated. Quality checks on data are not normally performed. It is possible for incorrect values to appear. Refer to information at About Latest Weather Observations and please check the disclaimer before using these data.